createdAt,value
2019-03-13T00:00:34.166Z,996.94
2019-03-13T00:01:34.026Z,997.03
2019-03-13T00:02:34.086Z,996.97
2019-03-13T00:03:34.003Z,996.96
2019-03-13T00:04:34.110Z,997.03
2019-03-13T00:05:33.977Z,996.97
2019-03-13T00:06:34.085Z,996.98
2019-03-13T00:07:33.951Z,997.05
2019-03-13T00:08:34.004Z,996.99
2019-03-13T00:09:33.954Z,997.05
2019-03-13T00:10:34.038Z,996.98
2019-03-13T00:11:33.977Z,997.01
2019-03-13T00:12:33.970Z,996.99
2019-03-13T00:13:33.911Z,996.98
2019-03-13T00:14:33.963Z,997.00
2019-03-13T00:15:33.862Z,997.02
2019-03-13T00:16:33.953Z,997.00
2019-03-13T00:17:33.865Z,996.99
2019-03-13T00:18:33.882Z,997.07
2019-03-13T00:19:33.858Z,996.97
2019-03-13T00:20:33.885Z,997.01
2019-03-13T00:21:33.794Z,997.03
2019-03-13T00:22:33.887Z,997.02
2019-03-13T00:23:33.781Z,996.91
2019-03-13T00:24:33.870Z,996.98
2019-03-13T00:25:33.771Z,996.97
2019-03-13T00:26:33.818Z,997.04
2019-03-13T00:27:33.734Z,996.94
2019-03-13T00:28:33.833Z,996.99
2019-03-13T00:29:33.735Z,996.98
2019-03-13T00:30:33.780Z,996.91
2019-03-13T00:31:33.717Z,996.95
2019-03-13T00:32:33.793Z,996.99
2019-03-13T00:33:33.683Z,997.02
2019-03-13T00:34:33.782Z,997.02
2019-03-13T00:35:33.717Z,996.99
2019-03-13T00:36:33.729Z,996.98
2019-03-13T00:37:33.621Z,996.92
2019-03-13T00:38:33.706Z,996.87
2019-03-13T00:39:33.596Z,996.86
2019-03-13T00:40:33.642Z,996.94
2019-03-13T00:41:33.579Z,996.98
2019-03-13T00:42:33.653Z,997.03
2019-03-13T00:43:33.573Z,997.00
2019-03-13T00:44:33.652Z,996.92
2019-03-13T00:45:33.658Z,996.92
2019-03-13T00:46:33.549Z,996.95
2019-03-13T00:47:33.512Z,996.92
2019-03-13T00:48:33.583Z,996.95
2019-03-13T00:49:33.488Z,996.97
2019-03-13T00:50:33.608Z,996.92
2019-03-13T00:51:36.726Z,997.02
2019-03-13T00:52:33.499Z,996.94
2019-03-13T00:53:33.450Z,996.88
2019-03-13T00:54:33.521Z,996.93
2019-03-13T00:55:33.442Z,996.94
2019-03-13T00:56:33.545Z,996.94
2019-03-13T00:57:33.410Z,997.04
2019-03-13T00:58:33.423Z,996.83
2019-03-13T00:59:33.382Z,997.01
2019-03-13T01:00:33.498Z,996.78
2019-03-13T01:01:33.355Z,996.90
2019-03-13T01:02:33.478Z,996.90
2019-03-13T01:03:33.337Z,996.91
2019-03-13T01:04:33.377Z,996.90
2019-03-13T01:05:33.306Z,996.96
2019-03-13T01:06:33.412Z,996.92
2019-03-13T01:07:33.375Z,996.91
2019-03-13T01:08:33.391Z,996.97
2019-03-13T01:09:33.280Z,996.87
2019-03-13T01:10:33.304Z,996.96
2019-03-13T01:11:33.284Z,996.80
2019-03-13T01:12:33.330Z,996.87
2019-03-13T01:13:33.230Z,996.92
2019-03-13T01:14:33.357Z,996.87
2019-03-13T01:15:33.234Z,996.92
2019-03-13T01:16:33.291Z,996.96
2019-03-13T01:17:33.176Z,996.94
2019-03-13T01:18:33.261Z,996.90
2019-03-13T01:19:33.172Z,996.90
2019-03-13T01:20:33.277Z,996.93
2019-03-13T01:21:33.159Z,996.95
2019-03-13T01:22:33.217Z,996.93
2019-03-13T01:23:33.112Z,996.96
2019-03-13T01:24:33.255Z,996.90
2019-03-13T01:25:33.093Z,996.90
2019-03-13T01:26:33.141Z,997.00
2019-03-13T01:27:33.094Z,996.92
2019-03-13T01:28:33.139Z,996.96
2019-03-13T01:29:33.051Z,996.99
2019-03-13T01:30:33.154Z,997.07
2019-03-13T01:31:33.072Z,997.05
2019-03-13T01:32:33.108Z,997.00
2019-03-13T01:33:33.001Z,996.95
2019-03-13T01:34:33.077Z,997.00
2019-03-13T01:35:33.001Z,996.99
2019-03-13T01:36:33.125Z,996.98
2019-03-13T01:37:32.990Z,997.04
2019-03-13T01:38:33.001Z,997.03
2019-03-13T01:39:32.941Z,997.01
2019-03-13T01:40:33.030Z,997.08
2019-03-13T01:41:32.921Z,997.12
2019-03-13T01:42:33.036Z,997.02
2019-03-13T01:43:32.924Z,997.06
2019-03-13T01:44:32.940Z,997.04
2019-03-13T01:45:32.884Z,997.04
2019-03-13T01:46:32.950Z,997.07
2019-03-13T01:47:32.883Z,997.07
2019-03-13T01:48:32.967Z,997.03
2019-03-13T01:49:32.879Z,997.05
2019-03-13T01:50:32.907Z,997.01
2019-03-13T01:51:32.812Z,997.05
2019-03-13T01:52:32.908Z,996.96
2019-03-13T01:53:32.807Z,997.01
2019-03-13T01:54:32.903Z,997.02
2019-03-13T01:55:32.766Z,997.03
2019-03-13T01:56:32.806Z,996.97
2019-03-13T01:57:32.778Z,996.98
2019-03-13T01:58:32.844Z,996.95
2019-03-13T01:59:32.719Z,996.88
2019-03-13T02:00:32.842Z,997.02
2019-03-13T02:01:32.700Z,996.92
2019-03-13T02:02:32.783Z,996.97
2019-03-13T02:03:32.707Z,996.82
2019-03-13T02:04:32.790Z,996.81
2019-03-13T02:05:32.658Z,996.83
2019-03-13T02:06:32.673Z,996.93
2019-03-13T02:07:32.661Z,996.84
2019-03-13T02:08:32.685Z,996.72
2019-03-13T02:09:32.607Z,996.81
2019-03-13T02:10:32.712Z,996.74
2019-03-13T02:11:32.580Z,996.82
2019-03-13T02:12:32.611Z,996.83
2019-03-13T02:13:32.598Z,996.75
2019-03-13T02:14:32.644Z,996.76
2019-03-13T02:15:32.554Z,996.78
2019-03-13T02:16:32.640Z,996.79
2019-03-13T02:17:32.523Z,996.75
2019-03-13T02:18:32.587Z,996.71
2019-03-13T02:19:32.523Z,996.77
2019-03-13T02:20:32.580Z,996.68
2019-03-13T02:21:32.478Z,996.73
2019-03-13T02:22:32.590Z,996.70
2019-03-13T02:23:32.482Z,996.70
2019-03-13T02:24:32.507Z,996.69
2019-03-13T02:25:32.437Z,996.64
2019-03-13T02:26:32.501Z,996.79
2019-03-13T02:27:32.430Z,996.71
2019-03-13T02:28:32.548Z,996.76
2019-03-13T02:29:32.411Z,996.71
2019-03-13T02:30:32.432Z,996.66
2019-03-13T02:31:32.380Z,996.60
2019-03-13T02:32:32.509Z,996.66
2019-03-13T02:33:32.380Z,996.62
2019-03-13T02:34:32.526Z,996.57
2019-03-13T02:35:32.377Z,996.61
2019-03-13T02:36:32.369Z,996.58
2019-03-13T02:37:32.313Z,996.62
2019-03-13T02:38:32.390Z,996.58
2019-03-13T02:39:32.319Z,996.68
2019-03-13T02:40:32.298Z,996.59
2019-03-13T02:41:32.280Z,996.66
2019-03-13T02:42:32.310Z,996.61
2019-03-13T02:43:32.255Z,996.64
2019-03-13T02:44:32.363Z,996.65
2019-03-13T02:45:32.259Z,996.66
2019-03-13T02:46:32.239Z,996.59
2019-03-13T02:47:32.202Z,996.61
2019-03-13T02:48:32.280Z,996.68
2019-03-13T02:49:32.194Z,996.70
2019-03-13T02:50:32.273Z,996.65
2019-03-13T02:51:32.155Z,996.62
2019-03-13T02:52:32.173Z,996.62
2019-03-13T02:53:32.129Z,996.67
2019-03-13T02:54:32.212Z,996.63
2019-03-13T02:55:32.119Z,996.59
2019-03-13T02:56:32.215Z,996.53
2019-03-13T02:57:32.110Z,996.55
2019-03-13T02:58:32.132Z,996.55
2019-03-13T02:59:32.071Z,996.63
2019-03-13T03:00:32.163Z,996.58
2019-03-13T03:01:32.045Z,996.59
2019-03-13T03:02:32.141Z,996.54
2019-03-13T03:03:32.052Z,996.54
2019-03-13T03:04:32.102Z,996.56
2019-03-13T03:05:32.015Z,996.53
2019-03-13T03:06:32.072Z,996.51
2019-03-13T03:07:31.980Z,996.58
2019-03-13T03:08:32.132Z,996.48
2019-03-13T03:09:32.004Z,996.50
2019-03-13T03:10:31.992Z,996.44
2019-03-13T03:11:31.959Z,996.58
2019-03-13T03:12:32.033Z,996.57
2019-03-13T03:13:31.914Z,996.52
2019-03-13T03:14:32.033Z,996.55
2019-03-13T03:15:31.912Z,996.45
2019-03-13T03:16:31.958Z,996.53
2019-03-13T03:17:31.882Z,996.49
2019-03-13T03:18:31.957Z,996.43
2019-03-13T03:19:31.906Z,996.51
2019-03-13T03:20:31.904Z,996.44
2019-03-13T03:21:31.818Z,996.48
2019-03-13T03:22:31.875Z,996.54
2019-03-13T03:23:31.803Z,996.45
2019-03-13T03:24:31.881Z,996.56
2019-03-13T03:25:31.799Z,996.55
2019-03-13T03:26:31.841Z,996.57
2019-03-13T03:27:31.750Z,996.48
2019-03-13T03:28:31.816Z,996.59
2019-03-13T03:29:31.743Z,996.63
2019-03-13T03:30:31.932Z,996.51
2019-03-13T03:31:31.722Z,996.54
2019-03-13T03:32:31.743Z,996.47
2019-03-13T03:33:31.737Z,996.44
2019-03-13T03:34:31.748Z,996.47
2019-03-13T03:35:31.699Z,996.50
2019-03-13T03:36:31.758Z,996.41
2019-03-13T03:37:31.650Z,996.48
2019-03-13T03:38:31.728Z,996.51
2019-03-13T03:39:31.626Z,996.42
2019-03-13T03:40:31.723Z,996.59
2019-03-13T03:41:31.639Z,996.45
2019-03-13T03:42:31.693Z,996.49
2019-03-13T03:43:39.949Z,996.52
2019-03-13T03:44:32.570Z,996.47
2019-03-13T03:45:31.647Z,996.56
2019-03-13T03:46:31.553Z,996.49
2019-03-13T03:47:31.636Z,996.58
2019-03-13T03:48:31.629Z,996.51
2019-03-13T03:49:31.538Z,996.59
2019-03-13T03:50:31.538Z,996.60
2019-03-13T03:51:31.587Z,996.60
2019-03-13T03:52:31.487Z,996.56
2019-03-13T03:53:31.568Z,996.54
2019-03-13T03:54:31.474Z,996.55
2019-03-13T03:55:31.477Z,996.50
2019-03-13T03:56:31.527Z,996.50
2019-03-13T03:57:31.509Z,996.57
2019-03-13T03:58:31.424Z,996.49
2019-03-13T04:00:32.513Z,996.56
2019-03-13T04:01:33.517Z,996.55
2019-03-13T04:02:31.367Z,996.50
2019-03-13T04:04:32.472Z,996.61
2019-03-13T04:05:31.529Z,996.56
2019-03-13T04:06:31.348Z,996.67
2019-03-13T04:08:32.425Z,996.57
2019-03-13T04:09:31.394Z,996.62
2019-03-13T04:10:31.277Z,996.64
2019-03-13T04:11:47.811Z,996.62
2019-03-13T04:12:31.252Z,996.59
2019-03-13T04:13:31.327Z,996.59
2019-03-13T04:14:31.236Z,996.71
2019-03-13T04:16:31.250Z,996.67
2019-03-13T04:17:33.348Z,996.70
2019-03-13T04:18:31.198Z,996.59
2019-03-13T04:19:31.239Z,996.62
2019-03-13T04:20:31.187Z,996.71
2019-03-13T04:22:32.313Z,996.60
2019-03-13T04:23:31.271Z,996.63
2019-03-13T04:24:31.129Z,996.49
2019-03-13T04:25:31.175Z,996.62
2019-03-13T04:26:31.105Z,996.64
2019-03-13T04:27:31.225Z,996.80
2019-03-13T04:28:31.117Z,996.75
2019-03-13T04:29:31.141Z,996.66
2019-03-13T04:30:31.070Z,996.54
2019-03-13T04:31:31.134Z,996.58
2019-03-13T04:32:31.074Z,996.59
2019-03-13T04:33:31.128Z,996.59
2019-03-13T04:34:31.027Z,996.62
2019-03-13T04:35:31.054Z,996.58
2019-03-13T04:36:30.997Z,996.57
2019-03-13T04:37:31.094Z,996.56
2019-03-13T04:38:30.983Z,996.59
2019-03-13T04:39:31.066Z,996.50
2019-03-13T04:40:30.951Z,996.63
2019-03-13T04:41:30.990Z,996.57
2019-03-13T04:42:30.963Z,996.51
2019-03-13T04:44:32.030Z,996.46
2019-03-13T04:45:31.007Z,996.51
2019-03-13T04:46:30.890Z,996.41
2019-03-13T04:47:30.923Z,996.53
2019-03-13T04:48:31.000Z,996.47
2019-03-13T04:49:30.936Z,996.47
2019-03-13T04:50:30.840Z,996.52
2019-03-13T04:51:30.961Z,996.47
2019-03-13T04:52:30.824Z,996.44
2019-03-13T04:53:30.892Z,996.44
2019-03-13T04:54:30.793Z,996.39
2019-03-13T04:55:30.883Z,996.56
2019-03-13T04:56:30.785Z,996.53
2019-03-13T04:57:30.795Z,996.58
2019-03-13T04:58:30.779Z,996.56
2019-03-13T05:00:31.856Z,996.50
2019-03-13T05:01:30.952Z,996.50
2019-03-13T05:02:30.835Z,996.44
2019-03-13T05:03:30.918Z,996.41
2019-03-13T05:04:30.820Z,996.36
2019-03-13T05:05:30.873Z,996.36
2019-03-13T05:06:30.661Z,996.38
2019-03-13T05:07:30.755Z,996.38
2019-03-13T05:08:30.663Z,996.59
2019-03-13T05:09:30.661Z,996.47
2019-03-13T05:10:30.628Z,996.43
2019-03-13T05:11:30.694Z,996.42
2019-03-13T05:12:30.604Z,996.46
2019-03-13T05:13:30.749Z,996.37
2019-03-13T05:14:32.666Z,996.40
2019-03-13T05:15:30.599Z,996.46
2019-03-13T05:16:30.550Z,996.34
2019-03-13T05:17:30.639Z,996.38
2019-03-13T05:18:30.555Z,996.29
2019-03-13T05:19:30.635Z,996.28
2019-03-13T05:20:30.504Z,996.37
2019-03-13T05:21:30.549Z,996.37
2019-03-13T05:22:30.491Z,996.29
2019-03-13T05:23:30.554Z,996.24
2019-03-13T05:24:30.514Z,996.39
2019-03-13T05:25:30.572Z,996.33
2019-03-13T05:26:30.444Z,996.25
2019-03-13T05:27:30.491Z,996.43
2019-03-13T05:28:30.430Z,996.30
2019-03-13T05:29:30.523Z,996.23
2019-03-13T05:30:30.410Z,996.44
2019-03-13T05:31:30.508Z,996.25
2019-03-13T05:32:30.370Z,996.23
2019-03-13T05:33:30.420Z,996.17
2019-03-13T05:34:30.388Z,996.25
2019-03-13T05:35:30.439Z,996.18
2019-03-13T05:36:30.339Z,996.23
2019-03-13T05:37:30.361Z,996.18
2019-03-13T05:38:30.320Z,996.17
2019-03-13T05:39:30.402Z,996.25
2019-03-13T05:40:30.310Z,996.19
2019-03-13T05:41:30.396Z,996.19
2019-03-13T05:42:30.270Z,996.32
2019-03-13T05:43:30.290Z,996.27
2019-03-13T05:44:30.276Z,996.12
2019-03-13T05:45:30.302Z,996.13
2019-03-13T05:46:30.230Z,996.16
2019-03-13T05:47:30.314Z,996.15
2019-03-13T05:48:30.210Z,996.02
2019-03-13T05:49:30.274Z,996.02
2019-03-13T05:50:31.547Z,996.09
2019-03-13T05:51:30.262Z,996.22
2019-03-13T05:52:30.153Z,996.33
2019-03-13T05:53:30.276Z,996.26
2019-03-13T05:54:30.125Z,996.23
2019-03-13T05:55:31.222Z,995.97
2019-03-13T05:56:30.111Z,996.08
2019-03-13T05:57:30.180Z,996.12
2019-03-13T05:58:30.142Z,996.16
2019-03-13T05:59:30.196Z,996.02
2019-03-13T06:00:30.132Z,996.26
2019-03-13T06:01:30.142Z,996.17
2019-03-13T06:02:30.043Z,996.21
2019-03-13T06:03:30.115Z,996.12
2019-03-13T06:04:30.027Z,996.11
2019-03-13T06:05:30.076Z,996.18
2019-03-13T06:06:30.039Z,996.24
2019-03-13T06:07:30.044Z,996.15
2019-03-13T06:08:29.985Z,996.04
2019-03-13T06:09:30.060Z,996.08
2019-03-13T06:10:30.002Z,996.15
2019-03-13T06:11:30.003Z,996.19
2019-03-13T06:12:29.966Z,996.15
2019-03-13T06:13:30.018Z,996.02
2019-03-13T06:14:29.918Z,996.16
2019-03-13T06:15:30.027Z,996.09
2019-03-13T06:16:29.963Z,996.09
2019-03-13T06:17:29.936Z,996.12
2019-03-13T06:18:29.864Z,996.09
2019-03-13T06:19:29.928Z,996.00
2019-03-13T06:20:29.852Z,996.13
2019-03-13T06:21:29.967Z,996.02
2019-03-13T06:22:29.832Z,996.12
2019-03-13T06:23:29.871Z,996.15
2019-03-13T06:24:29.804Z,996.08
2019-03-13T06:25:29.876Z,996.15
2019-03-13T06:26:29.819Z,996.11
2019-03-13T06:27:29.900Z,995.96
2019-03-13T06:28:29.782Z,995.97
2019-03-13T06:29:31.794Z,996.12
2019-03-13T06:30:29.768Z,995.97
2019-03-13T06:31:29.837Z,996.12
2019-03-13T06:32:29.710Z,996.13
2019-03-13T06:33:29.829Z,996.06
2019-03-13T06:34:29.690Z,996.03
2019-03-13T06:35:29.740Z,996.01
2019-03-13T06:36:29.710Z,996.03
2019-03-13T06:38:30.789Z,996.16
2019-03-13T06:40:30.782Z,996.20
2019-03-13T06:41:29.703Z,996.07
2019-03-13T06:42:29.608Z,996.02
2019-03-13T06:43:29.684Z,996.06
2019-03-13T06:44:29.578Z,996.08
2019-03-13T06:45:29.708Z,995.98
2019-03-13T06:46:29.558Z,995.96
2019-03-13T06:47:29.637Z,996.10
2019-03-13T06:49:30.674Z,995.97
2019-03-13T06:50:29.632Z,996.08
2019-03-13T06:51:29.500Z,996.01
2019-03-13T06:52:31.643Z,996.09
2019-03-13T06:53:29.481Z,996.14
2019-03-13T06:54:29.558Z,996.11
2019-03-13T06:55:29.470Z,996.12
2019-03-13T06:56:29.575Z,996.11
2019-03-13T06:57:29.462Z,996.14
2019-03-13T06:58:29.480Z,996.13
2019-03-13T06:59:29.415Z,996.16
2019-03-13T07:00:31.446Z,996.02
2019-03-13T07:01:29.395Z,995.97
2019-03-13T07:02:30.456Z,996.07
2019-03-13T07:03:29.365Z,996.08
2019-03-13T07:05:30.485Z,996.13
2019-03-13T07:07:30.483Z,996.01
2019-03-13T07:08:29.346Z,996.09
2019-03-13T07:09:29.310Z,996.05
2019-03-13T07:10:29.358Z,995.96
2019-03-13T07:11:29.288Z,996.12
2019-03-13T07:12:29.421Z,996.10
2019-03-13T07:13:29.262Z,996.05
2019-03-13T07:14:29.301Z,996.04
2019-03-13T07:15:29.243Z,996.01
2019-03-13T07:16:29.301Z,996.00
2019-03-13T07:17:29.215Z,996.03
2019-03-13T07:18:29.362Z,995.95
2019-03-13T07:19:29.221Z,996.16
2019-03-13T07:21:30.322Z,996.10
2019-03-13T07:22:29.237Z,996.14
2019-03-13T07:23:29.186Z,996.21
2019-03-13T07:24:29.252Z,996.06
2019-03-13T07:25:29.130Z,996.08
2019-03-13T07:26:29.169Z,996.17
2019-03-13T07:27:29.102Z,996.05
2019-03-13T07:28:29.214Z,996.04
2019-03-13T07:29:29.105Z,996.21
2019-03-13T07:31:30.201Z,996.15
2019-03-13T07:32:29.102Z,996.19
2019-03-13T07:33:29.072Z,996.07
2019-03-13T07:34:29.115Z,996.11
2019-03-13T07:35:29.020Z,996.13
2019-03-13T07:36:29.133Z,996.03
2019-03-13T07:37:29.005Z,996.04
2019-03-13T07:38:30.094Z,996.06
2019-03-13T07:39:28.979Z,996.14
2019-03-13T07:40:29.059Z,996.16
2019-03-13T07:41:28.953Z,996.08
2019-03-13T07:42:29.093Z,996.15
2019-03-13T07:43:28.989Z,996.16
2019-03-13T07:44:29.016Z,996.08
2019-03-13T07:45:28.917Z,996.06
2019-03-13T07:46:29.023Z,996.11
2019-03-13T07:47:29.428Z,996.07
2019-03-13T07:48:28.899Z,996.02
2019-03-13T07:49:28.899Z,996.12
2019-03-13T07:50:28.914Z,996.04
2019-03-13T07:51:28.859Z,996.03
2019-03-13T07:52:28.937Z,996.17
2019-03-13T07:53:28.817Z,996.02
2019-03-13T07:54:28.880Z,996.09
2019-03-13T07:55:28.813Z,996.05
2019-03-13T07:56:28.853Z,996.06
2019-03-13T07:57:28.778Z,995.97
2019-03-13T07:58:28.879Z,996.04
2019-03-13T07:59:28.782Z,996.03
2019-03-13T08:00:28.781Z,995.88
2019-03-13T08:01:28.762Z,995.86
2019-03-13T08:02:28.805Z,995.88
2019-03-13T08:03:28.721Z,995.97
2019-03-13T08:04:28.843Z,996.05
2019-03-13T08:05:28.753Z,995.96
2019-03-13T08:06:28.836Z,995.94
2019-03-13T08:07:28.668Z,995.92
2019-03-13T08:08:28.747Z,995.84
2019-03-13T08:09:28.643Z,995.97
2019-03-13T08:10:28.779Z,995.94
2019-03-13T08:11:28.621Z,995.92
2019-03-13T08:12:28.666Z,995.91
2019-03-13T08:13:28.601Z,995.92
2019-03-13T08:14:28.681Z,995.77
2019-03-13T08:15:28.583Z,995.83
2019-03-13T08:16:28.731Z,995.57
2019-03-13T08:17:28.558Z,995.77
2019-03-13T08:18:28.604Z,995.86
2019-03-13T08:19:28.535Z,995.77
2019-03-13T08:20:28.640Z,995.75
2019-03-13T08:21:28.512Z,995.67
2019-03-13T08:22:28.525Z,995.75
2019-03-13T08:23:28.537Z,995.76
2019-03-13T08:24:28.539Z,995.66
2019-03-13T08:25:28.504Z,995.87
2019-03-13T08:26:28.592Z,995.75
2019-03-13T08:27:28.448Z,995.87
2019-03-13T08:28:28.580Z,995.82
2019-03-13T08:29:28.434Z,995.71
2019-03-13T08:30:28.583Z,995.90
2019-03-13T08:31:28.443Z,995.79
2019-03-13T08:32:28.493Z,995.78
2019-03-13T08:33:28.394Z,995.79
2019-03-13T08:34:28.407Z,995.88
2019-03-13T08:35:28.362Z,995.85
2019-03-13T08:36:28.468Z,995.79
2019-03-13T08:37:28.341Z,995.80
2019-03-13T08:38:28.431Z,995.87
2019-03-13T08:39:28.324Z,995.95
2019-03-13T08:40:28.346Z,995.77
2019-03-13T08:41:28.335Z,995.87
2019-03-13T08:42:28.390Z,995.67
2019-03-13T08:43:28.312Z,995.81
2019-03-13T08:44:28.474Z,995.74
2019-03-13T08:45:28.284Z,995.74
2019-03-13T08:46:28.413Z,995.81
2019-03-13T08:47:28.246Z,995.96
2019-03-13T08:48:28.326Z,995.64
2019-03-13T08:49:28.208Z,995.76
2019-03-13T08:50:28.314Z,995.81
2019-03-13T08:51:28.217Z,995.77
2019-03-13T08:52:28.225Z,995.80
2019-03-13T08:53:28.165Z,995.88
2019-03-13T08:54:28.243Z,995.88
2019-03-13T08:55:28.141Z,995.85
2019-03-13T08:56:28.286Z,995.70
2019-03-13T08:57:28.126Z,995.75
2019-03-13T08:58:28.158Z,995.70
2019-03-13T08:59:28.098Z,995.73
2019-03-13T09:00:28.171Z,995.75
2019-03-13T09:01:28.116Z,995.81
2019-03-13T09:02:28.325Z,995.78
2019-03-13T09:03:28.074Z,995.74
2019-03-13T09:04:28.112Z,995.64
2019-03-13T09:05:28.038Z,995.75
2019-03-13T09:06:28.115Z,995.73
2019-03-13T09:07:28.046Z,995.75
2019-03-13T09:08:28.040Z,995.67
2019-03-13T09:09:28.003Z,995.71
2019-03-13T09:10:28.050Z,995.82
2019-03-13T09:11:27.981Z,995.80
2019-03-13T09:12:28.093Z,995.74
2019-03-13T09:13:27.974Z,995.82
2019-03-13T09:14:27.963Z,995.66
2019-03-13T09:15:27.929Z,995.54
2019-03-13T09:16:27.980Z,995.66
2019-03-13T09:17:27.928Z,995.76
2019-03-13T09:18:27.989Z,995.68
2019-03-13T09:19:27.885Z,995.70
2019-03-13T09:20:27.905Z,995.60
2019-03-13T09:21:27.851Z,995.62
2019-03-13T09:22:27.954Z,995.61
2019-03-13T09:23:27.860Z,995.59
2019-03-13T09:24:27.935Z,995.58
2019-03-13T09:25:27.958Z,995.33
2019-03-13T09:26:27.843Z,995.59
2019-03-13T09:27:27.832Z,995.67
2019-03-13T09:28:27.867Z,995.62
2019-03-13T09:29:28.102Z,995.48
2019-03-13T09:30:27.875Z,995.72
2019-03-13T09:31:27.762Z,995.50
2019-03-13T09:32:27.785Z,995.71
2019-03-13T09:33:27.832Z,995.51
2019-03-13T09:34:27.799Z,995.66
2019-03-13T09:35:27.706Z,995.67
2019-03-13T09:36:27.824Z,995.71
2019-03-13T09:37:27.681Z,995.64
2019-03-13T09:38:27.759Z,995.58
2019-03-13T09:39:27.712Z,995.64
2019-03-13T09:40:27.767Z,995.67
2019-03-13T09:41:27.639Z,995.65
2019-03-13T09:42:27.647Z,995.61
2019-03-13T09:43:27.612Z,995.60
2019-03-13T09:44:27.723Z,995.57
2019-03-13T09:45:27.591Z,995.63
2019-03-13T09:46:27.676Z,995.61
2019-03-13T09:47:27.565Z,995.72
2019-03-13T09:48:27.632Z,995.52
2019-03-13T09:49:27.594Z,995.49
2019-03-13T09:50:27.600Z,995.62
2019-03-13T09:51:27.526Z,995.60
2019-03-13T09:52:27.623Z,995.63
2019-03-13T09:53:27.644Z,995.56
2019-03-13T09:54:27.564Z,995.59
2019-03-13T09:55:27.486Z,995.50
2019-03-13T09:56:27.540Z,995.55
2019-03-13T09:57:27.507Z,995.57
2019-03-13T09:58:27.556Z,995.51
2019-03-13T09:59:27.473Z,995.56
2019-03-13T10:00:27.468Z,995.55
2019-03-13T10:01:27.426Z,995.59
2019-03-13T10:02:27.480Z,995.59
2019-03-13T10:03:27.398Z,995.63
2019-03-13T10:04:27.526Z,995.59
2019-03-13T10:05:27.372Z,995.59
2019-03-13T10:06:27.404Z,995.47
2019-03-13T10:07:27.350Z,995.56
2019-03-13T10:08:27.423Z,995.65
2019-03-13T10:09:27.358Z,995.60
2019-03-13T10:10:27.429Z,995.53
2019-03-13T10:11:27.306Z,995.56
2019-03-13T10:12:27.344Z,995.62
2019-03-13T10:13:27.286Z,995.68
2019-03-13T10:14:27.432Z,995.70
2019-03-13T10:15:27.258Z,995.66
2019-03-13T10:16:27.371Z,995.77
2019-03-13T10:17:27.238Z,995.76
2019-03-13T10:18:27.292Z,995.72
2019-03-13T10:19:27.221Z,995.70
2019-03-13T10:20:27.339Z,995.76
2019-03-13T10:21:27.205Z,995.72
2019-03-13T10:22:27.209Z,995.68
2019-03-13T10:23:27.177Z,995.79
2019-03-13T10:24:27.233Z,995.70
2019-03-13T10:25:27.236Z,996.02
2019-03-13T10:26:27.237Z,995.83
2019-03-13T10:27:27.158Z,995.87
2019-03-13T10:28:27.151Z,995.79
2019-03-13T10:29:27.125Z,995.75
2019-03-13T10:30:27.217Z,995.80
2019-03-13T10:31:27.106Z,995.74
2019-03-13T10:32:27.218Z,995.76
2019-03-13T10:33:27.079Z,995.60
2019-03-13T10:34:27.097Z,995.70
2019-03-13T10:35:27.076Z,995.58
2019-03-13T10:36:27.167Z,995.67
2019-03-13T10:37:27.023Z,995.65
2019-03-13T10:38:27.131Z,995.61
2019-03-13T10:39:27.020Z,995.51
2019-03-13T10:40:27.077Z,995.53
2019-03-13T10:41:27.022Z,995.44
2019-03-13T10:42:27.151Z,995.51
2019-03-13T10:43:27.008Z,995.56
2019-03-13T10:44:27.060Z,995.56
2019-03-13T10:45:26.941Z,995.56
2019-03-13T10:46:27.020Z,995.52
2019-03-13T10:47:26.919Z,995.52
2019-03-13T10:48:26.983Z,995.59
2019-03-13T10:49:26.888Z,995.54
2019-03-13T10:50:27.001Z,995.54
2019-03-13T10:51:26.891Z,995.55
2019-03-13T10:52:26.964Z,995.60
2019-03-13T10:53:26.847Z,995.45
2019-03-13T10:54:26.930Z,995.44
2019-03-13T10:55:26.874Z,995.35
2019-03-13T10:56:26.934Z,995.49
2019-03-13T10:57:26.826Z,995.34
2019-03-13T10:58:26.855Z,995.29
2019-03-13T10:59:26.785Z,995.34
2019-03-13T11:00:26.870Z,995.34
2019-03-13T11:01:26.760Z,995.34
2019-03-13T11:02:26.827Z,995.26
2019-03-13T11:03:26.739Z,995.28
2019-03-13T11:04:26.791Z,995.37
2019-03-13T11:05:26.721Z,995.31
2019-03-13T11:06:26.887Z,995.31
2019-03-13T11:07:28.789Z,995.24
2019-03-13T11:08:26.714Z,995.21
2019-03-13T11:09:26.677Z,995.21
2019-03-13T11:10:26.734Z,995.18
2019-03-13T11:11:26.647Z,995.19
2019-03-13T11:12:26.782Z,995.17
2019-03-13T11:13:26.623Z,995.26
2019-03-13T11:14:26.689Z,995.18
2019-03-13T11:15:26.602Z,995.19
2019-03-13T11:16:26.661Z,995.30
2019-03-13T11:17:26.635Z,995.32
2019-03-13T11:18:26.681Z,995.30
2019-03-13T11:19:26.564Z,995.27
2019-03-13T11:20:26.614Z,995.22
2019-03-13T11:21:26.561Z,995.20
2019-03-13T11:22:26.649Z,995.21
2019-03-13T11:23:26.520Z,995.18
2019-03-13T11:24:26.631Z,995.18
2019-03-13T11:25:26.511Z,995.18
2019-03-13T11:26:26.574Z,995.09
2019-03-13T11:27:26.495Z,995.26
2019-03-13T11:28:26.616Z,995.25
2019-03-13T11:29:26.470Z,995.20
2019-03-13T11:30:26.558Z,995.16
2019-03-13T11:31:26.430Z,995.22
2019-03-13T11:32:26.467Z,995.24
2019-03-13T11:33:26.465Z,995.14
2019-03-13T11:34:26.526Z,995.29
2019-03-13T11:35:26.387Z,995.28
2019-03-13T11:36:26.504Z,995.34
2019-03-13T11:37:26.375Z,995.25
2019-03-13T11:38:26.441Z,995.30
2019-03-13T11:39:26.346Z,995.08
2019-03-13T11:40:26.439Z,995.28
2019-03-13T11:41:26.330Z,995.20
2019-03-13T11:42:26.340Z,995.34
2019-03-13T11:43:26.426Z,995.26
2019-03-13T11:44:26.348Z,995.28
2019-03-13T11:45:26.293Z,995.29
2019-03-13T11:46:26.398Z,995.31
2019-03-13T11:47:26.260Z,995.28
2019-03-13T11:48:26.316Z,995.17
2019-03-13T11:49:26.230Z,995.10
2019-03-13T11:50:26.292Z,995.19
2019-03-13T11:51:26.246Z,995.14
2019-03-13T11:52:26.319Z,995.08
2019-03-13T11:53:26.218Z,995.03
2019-03-13T11:54:26.257Z,995.03
2019-03-13T11:55:26.163Z,995.24
2019-03-13T11:56:26.236Z,995.00
2019-03-13T11:57:26.137Z,995.00
2019-03-13T11:58:26.251Z,995.07
2019-03-13T11:59:26.140Z,995.14
2019-03-13T12:00:26.160Z,995.04
2019-03-13T12:01:26.104Z,995.05
2019-03-13T12:02:26.171Z,995.07
2019-03-13T12:03:26.076Z,995.15
2019-03-13T12:04:26.235Z,995.00
2019-03-13T12:05:26.057Z,994.95
2019-03-13T12:06:26.116Z,995.05
2019-03-13T12:07:26.035Z,994.90
2019-03-13T12:08:26.109Z,994.79
2019-03-13T12:09:26.057Z,994.76
2019-03-13T12:10:26.130Z,994.79
2019-03-13T12:11:27.934Z,994.84
2019-03-13T12:12:26.541Z,994.83
2019-03-13T12:13:25.968Z,994.69
2019-03-13T12:14:26.085Z,994.79
2019-03-13T12:15:25.960Z,994.84
2019-03-13T12:16:26.058Z,994.79
2019-03-13T12:17:25.927Z,994.63
2019-03-13T12:18:25.969Z,994.62
2019-03-13T12:19:25.906Z,994.61
2019-03-13T12:20:26.014Z,994.69
2019-03-13T12:21:25.882Z,994.64
2019-03-13T12:22:25.895Z,994.61
2019-03-13T12:23:25.855Z,994.64
2019-03-13T12:24:25.913Z,994.48
2019-03-13T12:25:25.897Z,994.61
2019-03-13T12:26:25.927Z,994.49
2019-03-13T12:27:25.815Z,994.60
2019-03-13T12:28:25.848Z,994.58
2019-03-13T12:29:25.828Z,994.62
2019-03-13T12:30:25.923Z,994.63
2019-03-13T12:31:25.807Z,994.62
2019-03-13T12:32:25.863Z,994.41
2019-03-13T12:33:25.757Z,994.70
2019-03-13T12:34:25.838Z,994.58
2019-03-13T12:35:25.766Z,994.69
2019-03-13T12:36:25.791Z,994.74
2019-03-13T12:37:25.756Z,994.74
2019-03-13T12:38:25.802Z,994.78
2019-03-13T12:39:25.699Z,994.80
2019-03-13T12:40:25.772Z,994.83
2019-03-13T12:41:25.668Z,994.61
2019-03-13T12:42:25.821Z,994.55